Time;durP1;ratioP1;P1;durP2;ratioP2;P2;SDS_P1;SDS_P2;PMS_P1;PMS_P2;Temp;Humidity;BMP_temperature;BMP_pressure;BME280_temperature;BME280_humidity;BME280_pressure;Samples;Min_cycle;Max_cycle;Signal;HPM_P1;HPM_P2
2021/11/18 00:02:23;;;;;;;16.93;8.43;;;;;;;-145.69;100.00;73233.50;5117009;28;20229;-77
2021/11/18 00:04:52;;;;;;;15.43;8.37;;;;;;;-145.69;100.00;73229.50;5117032;28;20636;-78
2021/11/18 00:07:21;;;;;;;15.80;8.93;;;;;;;-145.69;100.00;73231.50;5116756;28;20555;-77
2021/11/18 00:09:49;;;;;;;17.53;9.03;;;;;;;-145.69;100.00;73239.47;5116909;28;20208;-78
2021/11/18 00:12:15;;;;;;;19.40;9.80;;;;;;;-145.69;100.00;73237.47;5116683;28;20202;-78
2021/11/18 00:14:47;;;;;;;18.23;9.00;;;;;;;-145.69;100.00;73253.41;5117047;28;20208;-78
2021/11/18 00:17:15;;;;;;;18.10;9.07;;;;;;;-145.69;100.00;73247.41;5116606;28;20674;-78
2021/11/18 00:19:43;;;;;;;18.33;8.53;;;;;;;-145.69;100.00;73257.38;5116705;28;20216;-77
2021/11/18 00:22:14;;;;;;;21.03;8.97;;;;;;;-145.69;100.00;73257.38;5116264;28;20229;-78
2021/11/18 00:24:43;;;;;;;20.20;9.57;;;;;;;-145.69;100.00;73253.41;5116617;28;20236;-78
2021/11/18 00:27:10;;;;;;;18.87;8.43;;;;;;;-145.69;100.00;73241.44;5116803;28;20225;-77
2021/11/18 00:29:36;;;;;;;16.80;8.60;;;;;;;-145.69;100.00;73239.47;5115807;28;20198;-78
2021/11/18 00:32:10;;;;;;;16.40;7.53;;;;;;;-145.69;100.00;73229.50;5112912;28;20234;-77
2021/11/18 00:34:42;;;;;;;14.57;8.07;;;;;;;-145.69;100.00;73229.50;5116331;28;20224;-78
2021/11/18 00:37:11;;;;;;;15.23;8.07;;;;;;;-145.69;100.00;73225.53;5116487;28;20209;-78
2021/11/18 00:39:40;;;;;;;14.87;7.50;;;;;;;-145.69;100.00;73227.50;5115750;28;20198;-77
2021/11/18 00:42:09;;;;;;;14.67;7.77;;;;;;;-145.69;100.00;73221.53;5116236;28;20591;-78
2021/11/18 00:44:37;;;;;;;14.87;7.20;;;;;;;-145.69;100.00;73217.56;5116291;28;20197;-78
2021/11/18 00:47:04;;;;;;;18.23;8.83;;;;;;;-145.69;100.00;73213.56;5116017;28;20530;-78
2021/11/18 00:49:30;;;;;;;16.27;8.23;;;;;;;-145.69;100.00;73225.53;5116303;28;20273;-77
2021/11/18 00:51:58;;;;;;;16.73;8.57;;;;;;;-145.69;100.00;73229.50;5115800;28;20590;-78
2021/11/18 00:54:41;;;;;;;15.07;7.63;;;;;;;-145.69;100.00;73233.50;5116042;28;20197;-78
2021/11/18 00:57:10;;;;;;;16.97;7.73;;;;;;;-145.69;100.00;73233.50;5115871;28;20193;-78
2021/11/18 00:59:37;;;;;;;15.67;8.17;;;;;;;-145.69;100.00;73225.53;5115852;28;20194;-78
2021/11/18 01:02:04;;;;;;;13.77;6.90;;;;;;;-145.69;100.00;73221.53;5115762;28;20254;-77
2021/11/18 01:04:31;;;;;;;14.23;7.57;;;;;;;-145.69;100.00;73223.53;5115976;28;20210;-77
2021/11/18 01:07:02;;;;;;;15.73;7.50;;;;;;;-145.69;100.00;73209.59;5115708;28;20613;-77
2021/11/18 01:09:29;;;;;;;15.83;7.70;;;;;;;-145.69;100.00;73201.63;5115877;28;20197;-77
2021/11/18 01:11:55;;;;;;;14.93;7.90;;;;;;;-145.69;100.00;73211.59;5115576;28;20201;-77
2021/11/18 01:14:24;;;;;;;14.43;7.57;;;;;;;-145.69;100.00;73223.53;5115593;28;20201;-77
2021/11/18 01:16:53;;;;;;;14.87;7.97;;;;;;;-145.69;100.00;73219.56;5115579;28;20193;-77
2021/11/18 01:19:23;;;;;;;13.80;7.83;;;;;;;-145.69;100.00;73225.53;5115460;28;20205;-77
2021/11/18 01:21:51;;;;;;;17.50;8.53;;;;;;;-145.69;100.00;73233.50;5115532;28;20225;-78
2021/11/18 01:24:19;;;;;;;15.33;8.13;;;;;;;-145.69;100.00;73229.50;5115119;28;20268;-77
2021/11/18 01:26:49;;;;;;;14.87;7.63;;;;;;;-145.69;100.00;73223.53;5115345;28;20197;-77
2021/11/18 01:29:19;;;;;;;16.37;7.77;;;;;;;-145.69;100.00;73231.50;5115021;28;20197;-77
2021/11/18 01:31:51;;;;;;;13.20;6.93;;;;;;;-145.69;100.00;73225.53;5115263;28;20740;-78
2021/11/18 01:34:18;;;;;;;17.37;8.27;;;;;;;-145.69;100.00;73233.50;5115273;28;20197;-78
2021/11/18 01:36:45;;;;;;;13.40;6.77;;;;;;;-145.69;100.00;73229.50;5115250;28;20227;-78
2021/11/18 01:39:16;;;;;;;15.27;7.20;;;;;;;-145.69;100.00;73225.53;5114970;28;20701;-77
2021/11/18 01:41:51;;;;;;;15.03;7.53;;;;;;;-145.69;100.00;73221.53;5115007;28;20778;-77
2021/11/18 01:44:20;;;;;;;16.53;7.87;;;;;;;-145.69;100.00;73229.50;5115005;28;20196;-77
2021/11/18 01:49:34;;;;;;;16.23;8.07;;;;;;;-145.69;100.00;73217.56;5114644;28;20663;-77
2021/11/18 01:52:05;;;;;;;18.60;7.57;;;;;;;-145.69;100.00;73213.56;5114814;28;20288;-77
2021/11/18 01:54:38;;;;;;;18.67;8.03;;;;;;;-145.69;100.00;73209.59;5115154;28;20247;-77
2021/11/18 01:57:10;;;;;;;15.07;7.07;;;;;;;-145.69;100.00;73209.59;5114847;28;20202;-77
2021/11/18 01:59:42;;;;;;;13.60;7.07;;;;;;;-145.69;100.00;73221.53;5114662;28;20652;-77
2021/11/18 02:02:17;;;;;;;12.97;7.37;;;;;;;-145.69;100.00;73207.59;5113743;28;20688;-77
2021/11/18 02:04:52;;;;;;;15.27;7.43;;;;;;;-145.69;100.00;73209.59;5114658;28;20211;-77
2021/11/18 02:07:21;;;;;;;14.20;7.07;;;;;;;-145.69;100.00;73217.56;5114673;28;20238;-78
2021/11/18 02:09:50;;;;;;;14.43;7.47;;;;;;;-145.69;100.00;73221.53;5114625;28;20247;-77
2021/11/18 02:12:23;;;;;;;13.40;7.03;;;;;;;-145.69;100.00;73215.56;5114405;28;20209;-77
2021/11/18 02:14:50;;;;;;;13.73;7.30;;;;;;;-145.69;100.00;73217.56;5114393;28;20193;-76
2021/11/18 02:17:22;;;;;;;15.20;7.87;;;;;;;-145.69;100.00;73233.50;5114195;28;20683;-77
2021/11/18 02:19:52;;;;;;;17.97;8.67;;;;;;;-145.69;100.00;73237.47;5114332;28;20201;-77
2021/11/18 02:22:21;;;;;;;16.67;7.73;;;;;;;-145.69;100.00;73237.47;5114099;28;20221;-78
2021/11/18 02:24:51;;;;;;;14.87;8.03;;;;;;;-145.69;100.00;73231.50;5113918;28;20237;-78
2021/11/18 02:27:21;;;;;;;14.33;7.13;;;;;;;-145.69;100.00;73233.50;5113875;28;20656;-78
2021/11/18 02:29:51;;;;;;;16.43;7.57;;;;;;;-145.69;100.00;73231.50;5114189;28;20205;-77
2021/11/18 02:32:20;;;;;;;18.40;10.10;;;;;;;-145.69;100.00;73225.53;5113256;28;20416;-77
2021/11/18 02:34:54;;;;;;;17.40;8.80;;;;;;;-145.69;100.00;73235.47;5110088;28;20205;-77
2021/11/18 02:37:31;;;;;;;13.47;7.80;;;;;;;-145.69;100.00;73231.50;5113748;28;20253;-78
2021/11/18 02:39:57;;;;;;;17.07;7.30;;;;;;;-145.69;100.00;73227.50;5114010;28;20204;-78
2021/11/18 02:42:26;;;;;;;12.43;7.00;;;;;;;-145.69;100.00;73227.50;5113813;28;20228;-78
2021/11/18 02:45:01;;;;;;;12.90;6.80;;;;;;;-145.69;100.00;73229.50;5113679;28;20209;-78
2021/11/18 02:47:30;;;;;;;17.53;7.83;;;;;;;-145.69;100.00;73221.53;5113772;28;20205;-78
2021/11/18 02:49:58;;;;;;;14.97;7.77;;;;;;;-145.69;100.00;73229.50;5113664;28;20537;-78
2021/11/18 02:52:35;;;;;;;20.10;8.43;;;;;;;-145.69;100.00;73225.53;5113877;28;20280;-78
2021/11/18 02:55:10;;;;;;;17.00;8.37;;;;;;;-145.69;100.00;73231.50;5113780;28;20204;-78
2021/11/18 02:57:37;;;;;;;16.73;8.33;;;;;;;-145.69;100.00;73241.44;5113684;28;20292;-78
2021/11/18 03:00:18;;;;;;;15.60;7.20;;;;;;;-145.69;100.00;73237.47;5113397;28;20238;-78
2021/11/18 03:02:46;;;;;;;17.10;7.77;;;;;;;-145.69;100.00;73237.47;5113287;28;20277;-78
2021/11/18 03:05:20;;;;;;;18.37;8.47;;;;;;;-145.69;100.00;73249.41;5113545;28;20246;-78
2021/11/18 03:07:50;;;;;;;15.17;7.50;;;;;;;-145.69;100.00;73247.41;5112997;28;20201;-78
2021/11/18 03:10:22;;;;;;;16.03;7.77;;;;;;;-145.69;100.00;73245.44;5113416;28;20229;-78
2021/11/18 03:12:55;;;;;;;18.63;6.97;;;;;;;-145.69;100.00;73245.44;5113289;28;20219;-77
2021/11/18 03:15:24;;;;;;;15.50;6.63;;;;;;;-145.69;100.00;73231.50;5113221;28;20682;-78
2021/11/18 03:17:52;;;;;;;16.47;7.93;;;;;;;-145.69;100.00;73227.50;5113104;28;20193;-78
2021/11/18 03:20:23;;;;;;;17.67;7.57;;;;;;;-145.69;100.00;73221.53;5113295;28;20292;-77
2021/11/18 03:22:52;;;;;;;15.77;7.40;;;;;;;-145.69;100.00;73223.53;5113324;28;20225;-78
2021/11/18 03:25:21;;;;;;;16.70;8.00;;;;;;;-145.69;100.00;73233.50;5113119;28;20229;-77
2021/11/18 03:27:50;;;;;;;14.00;7.77;;;;;;;-145.69;100.00;73245.44;5113259;28;20201;-78
2021/11/18 03:30:26;;;;;;;14.00;7.47;;;;;;;-145.69;100.00;73255.38;5113245;28;20205;-77
2021/11/18 03:32:56;;;;;;;16.17;7.67;;;;;;;-145.69;100.00;73257.38;5113389;28;20265;-77
2021/11/18 03:35:28;;;;;;;15.20;7.13;;;;;;;-145.69;100.00;73253.41;5113270;28;20193;-78
2021/11/18 03:37:57;;;;;;;15.70;7.63;;;;;;;-145.69;100.00;73253.41;5113035;28;20659;-78
2021/11/18 03:40:28;;;;;;;16.10;7.23;;;;;;;-145.69;100.00;73249.41;5112669;28;20205;-78
2021/11/18 03:42:58;;;;;;;17.53;7.67;;;;;;;-145.69;100.00;73245.44;5113136;28;20592;-77
2021/11/18 03:45:30;;;;;;;16.50;8.23;;;;;;;-145.69;100.00;73245.44;5113267;28;20236;-77
2021/11/18 03:48:03;;;;;;;16.17;6.90;;;;;;;-145.69;100.00;73233.50;5113046;28;20212;-78
2021/11/18 03:50:29;;;;;;;13.13;6.67;;;;;;;-145.69;100.00;73231.50;5112875;28;20659;-78
2021/11/18 03:52:57;;;;;;;12.53;7.43;;;;;;;-145.69;100.00;73229.50;5113184;28;20206;-78
2021/11/18 03:55:28;;;;;;;13.90;7.30;;;;;;;-145.69;100.00;73241.44;5112518;28;20197;-77
2021/11/18 03:57:57;;;;;;;21.20;8.60;;;;;;;-145.69;100.00;73253.41;5112916;28;20197;-78
2021/11/18 04:00:31;;;;;;;15.03;7.53;;;;;;;-145.69;100.00;73251.41;5112920;28;20292;-78
2021/11/18 04:02:59;;;;;;;16.13;7.43;;;;;;;-145.69;100.00;73257.38;5112743;28;20224;-77
2021/11/18 04:05:26;;;;;;;13.60;7.23;;;;;;;-145.69;100.00;73253.41;5113061;28;20201;-78
2021/11/18 04:07:54;;;;;;;15.23;7.43;;;;;;;-145.69;100.00;73247.41;5113030;28;20560;-78
2021/11/18 04:10:24;;;;;;;14.77;7.20;;;;;;;-145.69;100.00;73241.44;5112970;28;20560;-78
2021/11/18 04:12:52;;;;;;;15.47;8.17;;;;;;;-145.69;100.00;73245.44;5112812;28;20201;-77
2021/11/18 04:15:21;;;;;;;16.53;7.70;;;;;;;-145.69;100.00;73245.44;5112434;28;20690;-78
2021/11/18 04:17:48;;;;;;;16.93;7.80;;;;;;;-145.69;100.00;73255.38;5112921;28;20228;-78
2021/11/18 04:20:16;;;;;;;16.23;7.60;;;;;;;-145.69;100.00;73253.41;5112861;28;20202;-78
2021/11/18 04:22:44;;;;;;;14.30;7.67;;;;;;;-145.69;100.00;73257.38;5112747;28;20229;-78
2021/11/18 04:25:15;;;;;;;16.00;7.70;;;;;;;-145.69;100.00;73253.41;5112751;28;20236;-77
2021/11/18 04:27:43;;;;;;;16.90;7.87;;;;;;;-145.69;100.00;73263.34;5116416;28;20194;-77
2021/11/18 04:30:12;;;;;;;18.03;8.17;;;;;;;-145.69;100.00;73269.31;5116439;28;20201;-78
2021/11/18 04:32:39;;;;;;;14.50;7.30;;;;;;;-145.69;100.00;73265.34;5116193;28;20197;-78
2021/11/18 04:35:07;;;;;;;16.03;6.87;;;;;;;-145.69;100.00;73261.34;5116380;28;20566;-78
2021/11/18 04:37:34;;;;;;;17.03;7.47;;;;;;;-145.69;100.00;73253.41;5106279;28;20198;-77
2021/11/18 04:40:01;;;;;;;17.40;8.30;;;;;;;-145.69;100.00;73257.38;5095837;28;20194;-77
2021/11/18 04:42:27;;;;;;;18.37;7.70;;;;;;;-145.69;100.00;73253.41;5095548;28;20229;-77
2021/11/18 04:44:55;;;;;;;21.67;9.27;;;;;;;-145.69;100.00;73249.41;5095661;28;20205;-77
2021/11/18 04:47:22;;;;;;;20.73;9.03;;;;;;;-145.69;100.00;73259.38;5095743;28;20206;-77
2021/11/18 04:49:49;;;;;;;19.63;9.43;;;;;;;-145.69;100.00;73245.44;5095658;28;20201;-77
2021/11/18 04:52:23;;;;;;;22.97;9.50;;;;;;;-145.69;100.00;73243.44;5095678;28;20213;-77
2021/11/18 04:54:53;;;;;;;23.73;8.83;;;;;;;-145.69;100.00;73249.41;5095540;28;20194;-77
2021/11/18 04:57:23;;;;;;;21.03;8.70;;;;;;;-145.69;100.00;73253.41;5095226;28;20657;-77
2021/11/18 04:59:52;;;;;;;22.80;9.70;;;;;;;-145.69;100.00;73245.44;5095487;28;20198;-77
2021/11/18 05:02:22;;;;;;;22.70;9.83;;;;;;;-145.69;100.00;73247.41;5095284;28;20285;-77
2021/11/18 05:04:49;;;;;;;27.03;9.83;;;;;;;-145.69;100.00;73249.41;5095124;28;20201;-77
2021/11/18 05:07:17;;;;;;;20.47;8.90;;;;;;;-145.69;100.00;73251.41;5095165;28;20201;-77
2021/11/18 05:09:45;;;;;;;27.93;9.40;;;;;;;-145.69;100.00;73255.38;5095124;28;20301;-77
2021/11/18 05:12:12;;;;;;;22.50;9.60;;;;;;;-145.69;100.00;73253.41;5095240;28;20201;-77
2021/11/18 05:14:43;;;;;;;21.70;9.30;;;;;;;-145.69;100.00;73269.31;5095357;28;20221;-77
2021/11/18 05:17:19;;;;;;;20.97;8.93;;;;;;;-145.69;100.00;73269.31;5095103;28;20233;-78
2021/11/18 05:19:46;;;;;;;20.13;8.83;;;;;;;-145.69;100.00;73271.31;5095075;28;20213;-77
2021/11/18 05:22:16;;;;;;;23.53;9.33;;;;;;;-145.69;100.00;73277.28;5094734;28;20234;-77
2021/11/18 05:24:42;;;;;;;24.57;10.10;;;;;;;-145.69;100.00;73283.25;5094874;28;20234;-77
2021/11/18 05:27:13;;;;;;;20.07;9.17;;;;;;;-145.69;100.00;73285.25;5094721;28;20683;-78
2021/11/18 05:29:39;;;;;;;26.03;10.13;;;;;;;-145.69;100.00;73273.31;5094975;28;20209;-77
2021/11/18 05:32:09;;;;;;;24.43;9.87;;;;;;;-145.69;100.00;73273.31;5094839;28;20255;-78
2021/11/18 05:34:39;;;;;;;20.13;8.70;;;;;;;-145.69;100.00;73283.25;5094607;28;20202;-78
2021/11/18 05:37:07;;;;;;;22.40;9.23;;;;;;;-145.69;100.00;73277.28;5093520;28;20604;-78
2021/11/18 05:39:34;;;;;;;18.43;8.70;;;;;;;-145.69;100.00;73273.31;5094782;28;20194;-78
2021/11/18 05:42:01;;;;;;;23.23;9.80;;;;;;;-145.69;100.00;73269.31;5094500;28;20202;-78
2021/11/18 05:44:28;;;;;;;19.60;8.97;;;;;;;-145.69;100.00;73265.34;5094448;28;20222;-79
2021/11/18 05:46:57;;;;;;;16.33;8.33;;;;;;;-145.69;100.00;73265.34;5094502;28;20319;-78
2021/11/18 05:49:24;;;;;;;22.20;9.37;;;;;;;-145.69;100.00;73273.31;5094323;28;20202;-78
2021/11/18 05:51:55;;;;;;;18.63;8.40;;;;;;;-145.69;100.00;73267.34;5094277;28;20199;-79
2021/11/18 05:54:24;;;;;;;21.53;8.43;;;;;;;-145.69;100.00;73267.34;5094506;28;20198;-78
2021/11/18 05:56:51;;;;;;;18.50;7.63;;;;;;;-145.69;100.00;73265.34;5094405;28;20198;-78
2021/11/18 05:59:17;;;;;;;16.70;7.70;;;;;;;-145.69;100.00;73265.34;5094543;28;20202;-79
2021/11/18 06:01:44;;;;;;;24.47;9.20;;;;;;;-145.69;100.00;73263.34;5095345;28;20561;-79
2021/11/18 06:04:12;;;;;;;22.97;8.53;;;;;;;-145.69;100.00;73267.34;5094586;28;20225;-78
2021/11/18 06:06:44;;;;;;;25.13;9.33;;;;;;;-145.69;100.00;73285.25;5094280;28;20210;-79
2021/11/18 06:09:13;;;;;;;26.33;8.27;;;;;;;-145.69;100.00;73285.25;5094372;28;20728;-78
2021/11/18 06:11:44;;;;;;;20.27;8.87;;;;;;;-145.69;100.00;73289.22;5094263;28;20254;-78
2021/11/18 06:14:12;;;;;;;21.07;8.23;;;;;;;-145.69;100.00;73291.22;5094247;28;20718;-78
2021/11/18 06:16:42;;;;;;;18.77;8.10;;;;;;;-145.69;100.00;73289.22;5094441;28;20201;-78
2021/11/18 06:19:11;;;;;;;20.23;8.80;;;;;;;-145.69;100.00;73287.25;5094236;28;20301;-78
2021/11/18 06:21:41;;;;;;;17.70;8.70;;;;;;;-145.69;100.00;73289.22;5094341;28;20595;-78
2021/11/18 06:24:08;;;;;;;20.07;8.40;;;;;;;-145.69;100.00;73293.22;5093905;28;20225;-78
2021/11/18 06:26:37;;;;;;;19.93;8.73;;;;;;;-145.69;100.00;73281.25;5093536;28;20696;-78
2021/11/18 06:29:05;;;;;;;18.77;8.53;;;;;;;-145.69;100.00;73295.19;5093823;28;20197;-78
2021/11/18 06:31:33;;;;;;;20.40;8.83;;;;;;;-145.69;100.00;73311.13;5094087;28;20198;-78
2021/11/18 06:34:02;;;;;;;21.43;9.20;;;;;;;-145.69;100.00;73301.19;5093998;28;20209;-77
2021/11/18 06:36:39;;;;;;;21.30;11.20;;;;;;;-145.69;100.00;73301.19;5092809;28;20433;-78
2021/11/18 06:39:06;;;;;;;20.87;8.97;;;;;;;-145.69;100.00;73301.19;5093836;28;20615;-78
2021/11/18 06:41:33;;;;;;;15.70;8.00;;;;;;;-145.69;100.00;73305.16;5093592;28;20289;-78
2021/11/18 06:44:06;;;;;;;17.03;8.00;;;;;;;-145.69;100.00;73293.22;5099530;28;20236;-78
2021/11/18 06:46:34;;;;;;;15.27;6.80;;;;;;;-145.69;100.00;73293.22;5114151;28;20201;-78
2021/11/18 06:49:04;;;;;;;13.23;6.57;;;;;;;-145.69;100.00;73295.19;5113553;28;20209;-78
2021/11/18 06:51:31;;;;;;;14.20;6.80;;;;;;;-145.69;100.00;73301.19;5113922;28;20568;-78
2021/11/18 06:53:59;;;;;;;21.57;10.03;;;;;;;-145.69;100.00;73301.19;5113949;28;20313;-78
2021/11/18 06:56:27;;;;;;;18.93;9.63;;;;;;;-145.69;100.00;73307.16;5114129;28;20205;-78
2021/11/18 06:58:55;;;;;;;18.87;8.80;;;;;;;-145.69;100.00;73309.13;5113813;28;20288;-78
2021/11/18 07:01:22;;;;;;;20.37;10.10;;;;;;;-145.69;100.00;73295.19;5113986;28;20197;-78
2021/11/18 07:03:51;;;;;;;18.20;8.93;;;;;;;-145.69;100.00;73293.22;5113625;28;20226;-77
2021/11/18 07:06:23;;;;;;;20.33;9.40;;;;;;;-145.69;100.00;73275.28;5113644;28;20300;-78
2021/11/18 07:08:52;;;;;;;19.80;9.40;;;;;;;-145.69;100.00;73279.28;5113931;28;20305;-77
2021/11/18 07:11:21;;;;;;;18.77;9.03;;;;;;;-145.69;100.00;73293.22;5113630;28;20201;-77
2021/11/18 07:13:50;;;;;;;19.47;9.20;;;;;;;-145.69;100.00;73301.19;5113425;28;20599;-77
2021/11/18 07:16:19;;;;;;;19.17;9.03;;;;;;;-145.69;100.00;73285.25;5113441;28;20231;-78
2021/11/18 07:18:46;;;;;;;19.27;9.53;;;;;;;-145.69;100.00;73285.25;5113513;28;20204;-77
2021/11/18 07:21:16;;;;;;;21.43;7.83;;;;;;;-145.69;100.00;73263.34;5113134;28;20552;-77
2021/11/18 07:23:44;;;;;;;20.03;10.17;;;;;;;-145.69;100.00;73261.34;5113358;28;20235;-77
2021/11/18 07:26:11;;;;;;;34.47;12.67;;;;;;;-145.69;100.00;73257.38;5113247;28;20232;-77
2021/11/18 07:28:39;;;;;;;24.27;10.60;;;;;;;-145.69;100.00;73251.41;5113390;28;20648;-77
2021/11/18 07:31:08;;;;;;;21.37;8.80;;;;;;;-145.69;100.00;73247.41;5113240;28;20205;-76
2021/11/18 07:33:41;;;;;;;15.60;8.00;;;;;;;-145.69;100.00;73229.50;5113204;28;20274;-78
2021/11/18 07:36:08;;;;;;;13.43;7.20;;;;;;;-145.69;100.00;73221.53;5113190;28;20545;-78
2021/11/18 07:38:36;;;;;;;16.47;7.30;;;;;;;-145.69;100.00;73235.47;5113310;28;20604;-78
2021/11/18 07:41:04;;;;;;;15.20;7.70;;;;;;;-145.69;100.00;73225.53;5113272;28;20208;-78
2021/11/18 07:43:35;;;;;;;14.70;6.73;;;;;;;-145.69;100.00;73221.53;5113208;28;20587;-78
2021/11/18 07:46:07;;;;;;;16.10;7.37;;;;;;;-145.69;100.00;73223.53;5113200;28;20294;-78
2021/11/18 07:48:33;;;;;;;16.63;7.20;;;;;;;-145.69;100.00;73203.63;5113463;28;20613;-79
2021/11/18 07:51:05;;;;;;;15.63;7.77;;;;;;;-145.69;100.00;73205.63;5113352;28;20197;-79
2021/11/18 07:53:34;;;;;;;13.00;6.60;;;;;;;-145.69;100.00;73201.63;5113281;28;20233;-78
2021/11/18 07:56:04;;;;;;;13.27;6.87;;;;;;;-145.69;100.00;73209.59;5113358;28;20247;-78
2021/11/18 07:58:31;;;;;;;15.10;6.73;;;;;;;-145.69;100.00;73193.66;5113090;28;20293;-78
2021/11/18 08:01:03;;;;;;;15.83;6.30;;;;;;;-145.69;100.00;73189.69;5114440;28;20204;-78
2021/11/18 08:03:30;;;;;;;13.80;6.57;;;;;;;-145.69;100.00;73171.78;5116957;28;20722;-77
2021/11/18 08:05:57;;;;;;;12.93;6.27;;;;;;;-145.69;100.00;73175.75;5117114;28;20205;-79
2021/11/18 08:08:23;;;;;;;12.27;5.57;;;;;;;-145.69;100.00;73173.75;5116888;28;20201;-78
2021/11/18 08:10:50;;;;;;;12.87;6.47;;;;;;;-145.69;100.00;73209.59;5116906;28;20197;-78
2021/11/18 08:13:18;;;;;;;14.60;6.60;;;;;;;-145.69;100.00;73225.53;5116626;28;20224;-78
2021/11/18 08:15:46;;;;;;;14.03;6.20;;;;;;;-145.69;100.00;73217.56;5116800;28;20601;-78
2021/11/18 08:18:12;;;;;;;14.07;6.17;;;;;;;-145.69;100.00;73225.53;5116818;28;20204;-78
2021/11/18 08:20:39;;;;;;;13.27;5.90;;;;;;;-145.69;100.00;73187.69;5116809;28;20197;-78
2021/11/18 08:23:06;;;;;;;16.47;6.60;;;;;;;-145.69;100.00;73169.78;5116561;28;20227;-79
2021/11/18 08:25:35;;;;;;;12.27;5.67;;;;;;;-145.69;100.00;73143.91;5116236;28;20235;-78
2021/11/18 08:28:04;;;;;;;14.83;6.03;;;;;;;-145.69;100.00;73141.91;5116714;28;20194;-77
2021/11/18 08:30:35;;;;;;;14.23;5.60;;;;;;;-145.69;100.00;73133.94;5116436;28;20197;-78
2021/11/18 08:33:07;;;;;;;12.90;5.43;;;;;;;-145.69;100.00;73157.84;5104607;28;20202;-79
2021/11/18 08:35:37;;;;;;;12.00;5.83;;;;;;;-145.69;100.00;73147.88;5098164;28;20213;-78
2021/11/18 08:38:08;;;;;;;11.23;5.73;;;;;;;-145.69;100.00;73114.03;5096018;28;20205;-78
2021/11/18 08:40:41;;;;;;;11.77;5.80;;;;;;;-145.69;100.00;73090.16;5105563;28;20196;-76
2021/11/18 08:43:08;;;;;;;12.47;5.97;;;;;;;-145.69;100.00;73092.16;5116190;28;20567;-76
2021/11/18 08:45:39;;;;;;;9.67;5.17;;;;;;;-145.69;100.00;73116.03;5114899;28;20232;-77
2021/11/18 08:48:09;;;;;;;10.07;5.30;;;;;;;-145.69;100.00;73092.16;5116176;28;20205;-76
2021/11/18 08:50:38;;;;;;;11.40;5.73;;;;;;;-145.69;100.00;73066.25;5115902;28;20194;-76
2021/11/18 08:53:07;;;;;;;11.67;6.40;;;;;;;-145.69;100.00;73068.25;5116212;28;20201;-77
2021/11/18 08:55:37;;;;;;;10.30;5.90;;;;;;;-145.69;100.00;73082.19;5115400;28;20439;-76
2021/11/18 08:58:05;;;;;;;1.40;1.00;;;;;;;-145.69;100.00;73098.13;5115874;28;20201;-76
2021/11/18 09:00:37;;;;;;;1.33;1.10;;;;;;;-145.69;100.00;73064.28;5115845;28;20204;-75
2021/11/18 09:03:05;;;;;;;1.37;1.10;;;;;;;-145.69;100.00;73046.34;5115665;28;20197;-77
2021/11/18 09:05:32;;;;;;;4.70;2.57;;;;;;;-145.69;100.00;73082.19;5115708;28;20229;-77
2021/11/18 09:08:00;;;;;;;4.13;2.50;;;;;;;-145.69;100.00;73084.19;5115793;28;20201;-77
2021/11/18 09:10:28;;;;;;;4.37;2.30;;;;;;;-145.69;100.00;73064.28;5115748;28;20240;-77
2021/11/18 09:12:55;;;;;;;1.63;1.17;;;;;;;-145.69;100.00;73062.28;5115518;28;20205;-77
2021/11/18 09:15:24;;;;;;;0.80;0.80;;;;;;;-145.69;100.00;73074.22;5115475;28;20640;-76
2021/11/18 09:17:51;;;;;;;1.00;0.60;;;;;;;-145.69;100.00;73064.28;5115373;28;20197;-76
2021/11/18 09:20:22;;;;;;;0.87;0.87;;;;;;;-145.69;100.00;73046.34;5115643;28;20201;-76
2021/11/18 09:22:49;;;;;;;2.40;1.90;;;;;;;-145.69;100.00;73026.44;5115452;28;20212;-79
2021/11/18 09:25:17;;;;;;;0.77;0.77;;;;;;;-145.69;100.00;72986.63;5115007;28;20277;-80
2021/11/18 09:27:49;;;;;;;2.83;2.20;;;;;;;-145.69;100.00;72986.63;5115372;28;20568;-79
2021/11/18 09:30:18;;;;;;;0.80;0.80;;;;;;;-145.69;99.17;72980.66;5115231;28;20208;-79
2021/11/18 09:32:45;;;;;;;1.00;0.80;;;;;;;-145.69;100.00;72970.72;5115341;28;20197;-79
2021/11/18 09:35:16;;;;;;;0.73;0.73;;;;;;;-145.69;99.52;72950.81;5115053;28;20721;-80
2021/11/18 09:37:43;;;;;;;1.10;1.00;;;;;;;-145.69;99.95;72956.78;5115206;28;20545;-79
2021/11/18 09:40:15;;;;;;;1.57;0.93;;;;;;;-145.69;98.44;72964.75;5114978;28;20197;-78
2021/11/18 09:43:00;;;;;;;0.83;0.83;;;;;;;-145.69;100.00;73014.50;5114948;28;20210;-77
2021/11/18 09:45:29;;;;;;;0.90;0.80;;;;;;;-145.69;100.00;73018.50;5115133;28;20618;-79
2021/11/18 09:48:18;;;;;;;1.73;0.77;;;;;;;-145.69;100.00;73062.28;5114869;28;20648;-77
2021/11/18 09:50:51;;;;;;;1.40;0.90;;;;;;;-145.69;100.00;73153.84;5114952;28;20205;-78
2021/11/18 09:53:36;;;;;;;1.83;0.90;;;;;;;-145.69;100.00;73155.84;5114818;28;20213;-78
2021/11/18 09:56:09;;;;;;;0.90;0.70;;;;;;;-145.69;100.00;73066.25;5114798;28;20243;-77
2021/11/18 09:58:54;;;;;;;0.80;0.70;;;;;;;-145.69;100.00;73030.44;5114932;28;20197;-78
2021/11/18 10:01:48;;;;;;;1.43;0.60;;;;;;;-145.69;98.92;72976.69;5114275;28;20261;-78
2021/11/18 10:04:26;;;;;;;0.70;0.70;;;;;;;-145.69;99.04;72956.78;5114781;28;20592;-77
2021/11/18 10:06:55;;;;;;;1.27;1.07;;;;;;;-145.69;97.44;72926.91;5114587;28;20250;-78
2021/11/18 10:09:29;;;;;;;0.93;0.70;;;;;;;-145.69;100.00;72978.69;5114594;28;20197;-77
2021/11/18 10:12:07;;;;;;;0.70;0.70;;;;;;;-145.69;96.97;72936.88;5114515;28;20205;-79
2021/11/18 10:14:54;;;;;;;1.13;0.70;;;;;;;-145.69;97.85;72930.91;5114489;28;20193;-78
2021/11/18 10:17:29;;;;;;;0.80;0.80;;;;;;;-145.69;97.38;72930.91;5112287;28;20200;-78
2021/11/18 10:19:59;;;;;;;1.87;1.07;;;;;;;-145.69;96.28;72895.06;5112403;28;20243;-78
2021/11/18 10:22:28;;;;;;;3.57;1.77;;;;;;;-145.69;97.44;72889.09;5112608;28;20201;-78
2021/11/18 10:24:58;;;;;;;5.83;2.10;;;;;;;-145.69;94.38;72922.94;5111502;28;20244;-78
2021/11/18 10:27:30;;;;;;;3.27;1.43;;;;;;;-145.69;94.88;72901.03;5112260;28;20224;-78
2021/11/18 10:30:08;;;;;;;2.00;1.27;;;;;;;-145.69;98.07;72986.63;5112399;28;20201;-78
2021/11/18 10:32:45;;;;;;;3.00;1.50;;;;;;;-145.69;100.00;73068.25;5114263;28;20201;-78
2021/11/18 10:35:16;;;;;;;2.30;1.27;;;;;;;-145.69;100.00;73070.25;5114356;28;20201;-78
2021/11/18 10:37:45;;;;;;;1.63;1.23;;;;;;;-145.69;100.00;73022.47;5106163;28;20209;-78
2021/11/18 10:40:19;;;;;;;3.77;2.27;;;;;;;-145.69;100.00;73006.53;5075975;28;20205;-79
2021/11/18 10:42:48;;;;;;;2.60;1.50;;;;;;;-145.69;100.00;73022.47;5093646;28;20194;-79
2021/11/18 10:45:35;;;;;;;2.33;1.43;;;;;;;-145.69;98.31;72998.59;5075215;28;20312;-79
2021/11/18 10:48:04;;;;;;;2.87;1.60;;;;;;;-145.69;96.87;72966.72;5093695;28;20212;-79
2021/11/18 10:50:35;;;;;;;2.50;1.70;;;;;;;-145.69;97.70;72962.75;5093126;28;20567;-79
2021/11/18 10:53:06;;;;;;;2.00;1.20;;;;;;;-145.69;94.16;72909.00;5093096;28;20663;-79
2021/11/18 10:55:36;;;;;;;2.03;1.40;;;;;;;-145.69;92.44;72903.03;5093364;28;20204;-79
2021/11/18 10:58:06;;;;;;;2.37;1.40;;;;;;;-145.69;94.08;72922.94;5093237;28;20284;-79
2021/11/18 11:00:45;;;;;;;2.20;1.47;;;;;;;-145.69;94.67;72893.09;5093525;28;20280;-79
2021/11/18 11:03:26;;;;;;;1.87;1.20;;;;;;;-145.69;92.41;72867.19;5093372;28;20313;-79
2021/11/18 11:06:15;;;;;;;2.53;1.60;;;;;;;-145.69;89.58;72837.34;5093180;28;20583;-77
2021/11/18 11:08:43;;;;;;;2.97;1.60;;;;;;;-145.69;89.09;72853.28;5093407;28;20205;-77
2021/11/18 11:11:20;;;;;;;2.07;1.30;;;;;;;-145.69;95.10;72901.03;5092928;28;20204;-78
2021/11/18 11:14:09;;;;;;;2.60;1.67;;;;;;;-145.69;91.74;72841.31;5093380;28;20198;-78
2021/11/18 11:16:53;;;;;;;2.87;1.93;;;;;;;-145.69;92.32;72813.47;5093155;28;20190;-78
2021/11/18 11:19:32;;;;;;;2.73;1.73;;;;;;;-145.69;88.75;72795.53;5093265;28;20288;-77
2021/11/18 11:22:06;;;;;;;3.57;1.40;;;;;;;-145.69;87.47;72815.44;5093146;28;20206;-78